Portada
METAR-TAF:

METAR-TAF

Aeropuertos :

Teherán, Irán

Aeropuerto Internacional de Mehrabad

latitud: 35-41N, longitud: 051-21E, altitud: 1204 m

Observación

El informe se hizo hace 17 minutos, a las 15:00 UTC
Viento 12 kt del oeste
Temperatura 9°C
Humedad 25%
Presión 1019 hPa
Visibilidad 10 km o más
sin nubes por debajo de 1500 m y sin presencia de cumulonimbus.

METAR: OIII 111500Z 28012KT CAVOK 09/M10 Q1018 A3008 NOSIG

Hora: 18:47 (15:17 UTC)

Pronóstico

El informe se hizo hace 4 horas y 17 minutos, a las 11:00 UTC
Pronóstico válido del 11 a las 12 UTC al 12 a las 18 UTC
Viento 8 kt del oeste-suroeste
Visibilidad: 7000 m
Temporalmente
del 11 a las 12 UTC al 11 a las 18 UTC
Viento 16 kt del oeste

TAF: OIII 111100Z 1112/1218 24004MPS 7000 NSC TEMPO 1112/1118 28008MPS

Observaciones y pronósticos meteorológicos de más de 4000 aeropuertos (mensajes METAR y TAF).

Los puntos amarillos y rojos representan las estaciones disponibles.

Ponga el ratón en el punto deseado para ver el nombre de la estación.

Haga clic para ver las observaciones y los pronósticos meteorológicos.

Para cambiar el mapa : haga clic en los botones verdes con una cruz de color negro para hacer un zoom, en el botón verde con un guión para alejar o en las flechas verdes para mapas adyacentes.


METAR-TAF: